createdAt,value
2023-03-31T00:00:18.712Z,0.93
2023-03-31T00:02:47.388Z,0.90
2023-03-31T00:05:18.013Z,0.75
2023-03-31T00:07:45.915Z,1.10
2023-03-31T00:10:18.392Z,0.80
2023-03-31T00:12:45.905Z,0.70
2023-03-31T00:15:12.622Z,1.02
2023-03-31T00:17:39.900Z,0.98
2023-03-31T00:20:12.093Z,1.00
2023-03-31T00:22:42.058Z,0.85
2023-03-31T00:25:11.050Z,1.02
2023-03-31T00:27:37.911Z,1.10
2023-03-31T00:30:04.952Z,0.82
2023-03-31T00:32:33.280Z,1.17
2023-03-31T00:35:02.252Z,0.88
2023-03-31T00:37:29.526Z,0.98
2023-03-31T00:39:56.739Z,0.90
2023-03-31T00:42:23.710Z,1.13
2023-03-31T00:45:14.951Z,0.88
2023-03-31T00:47:45.076Z,0.98
2023-03-31T00:50:22.247Z,0.90
2023-03-31T00:52:55.535Z,0.98
2023-03-31T00:55:28.464Z,0.80
2023-03-31T00:57:55.913Z,0.80
2023-03-31T01:00:24.173Z,1.40
2023-03-31T01:02:58.688Z,0.70
2023-03-31T01:05:43.757Z,0.90
2023-03-31T01:08:10.887Z,0.77
2023-03-31T01:10:42.086Z,0.98
2023-03-31T01:13:14.915Z,1.52
2023-03-31T01:15:42.517Z,1.63
2023-03-31T01:18:11.354Z,0.73
2023-03-31T01:21:08.550Z,0.73
2023-03-31T01:23:35.038Z,1.00
2023-03-31T01:26:30.227Z,0.82
2023-03-31T01:29:18.865Z,1.20
2023-03-31T01:32:11.494Z,1.02
2023-03-31T01:35:02.164Z,1.20
2023-03-31T01:37:37.760Z,0.85
2023-03-31T01:40:39.748Z,1.02
2023-03-31T01:43:34.854Z,1.10
2023-03-31T01:46:03.660Z,0.80
2023-03-31T01:48:49.052Z,0.98
2023-03-31T01:51:27.697Z,1.05
2023-03-31T01:54:01.937Z,1.20
2023-03-31T01:56:38.689Z,1.10
2023-03-31T01:59:18.415Z,1.45
2023-03-31T02:02:02.081Z,1.05
2023-03-31T02:04:33.979Z,1.05
2023-03-31T02:07:07.717Z,0.75
2023-03-31T02:09:41.343Z,1.17
2023-03-31T02:12:11.171Z,1.30
2023-03-31T02:14:45.005Z,1.05
2023-03-31T02:17:18.257Z,1.00
2023-03-31T02:19:51.708Z,0.93
2023-03-31T02:22:21.752Z,1.40
2023-03-31T02:24:51.396Z,1.00
2023-03-31T02:27:22.979Z,0.90
2023-03-31T02:29:50.567Z,0.93
2023-03-31T02:32:37.917Z,1.45
2023-03-31T02:35:06.135Z,1.10
2023-03-31T02:37:34.465Z,1.45
2023-03-31T02:40:10.413Z,1.30
2023-03-31T02:42:41.372Z,0.82
2023-03-31T02:45:53.838Z,1.00
2023-03-31T02:48:30.082Z,1.33
2023-03-31T02:51:09.072Z,1.13
2023-03-31T02:54:19.557Z,1.23
2023-03-31T02:57:36.361Z,1.27
2023-03-31T03:00:10.303Z,1.00
2023-03-31T03:03:27.578Z,0.90
2023-03-31T03:06:27.841Z,1.27
2023-03-31T03:09:39.082Z,1.00
2023-03-31T03:12:16.410Z,1.40
2023-03-31T03:15:05.160Z,1.23
2023-03-31T03:17:39.836Z,0.85
2023-03-31T03:20:09.470Z,1.13
2023-03-31T03:22:37.618Z,1.00
2023-03-31T03:25:06.170Z,0.90
2023-03-31T03:27:32.726Z,1.50
2023-03-31T03:29:59.269Z,1.02
2023-03-31T03:32:25.970Z,1.05
2023-03-31T03:34:52.600Z,0.90
2023-03-31T03:37:19.169Z,1.05
2023-03-31T03:39:46.044Z,1.20
2023-03-31T03:42:12.633Z,1.35
2023-03-31T03:44:39.159Z,1.05
2023-03-31T03:47:05.745Z,1.23
2023-03-31T03:49:32.314Z,1.27
2023-03-31T03:51:59.100Z,0.98
2023-03-31T03:54:25.801Z,0.93
2023-03-31T03:56:52.436Z,0.90
2023-03-31T03:59:19.038Z,1.15
2023-03-31T04:01:45.611Z,1.00
2023-03-31T04:04:12.362Z,1.17
2023-03-31T04:06:39.005Z,1.08
2023-03-31T04:09:05.573Z,0.90
2023-03-31T04:11:32.799Z,1.20
2023-03-31T04:13:59.477Z,0.75
2023-03-31T04:16:26.149Z,1.00
2023-03-31T04:18:56.666Z,0.88
2023-03-31T04:21:23.910Z,0.90
2023-03-31T04:23:58.752Z,1.00
2023-03-31T04:26:31.464Z,1.08
2023-03-31T04:29:01.622Z,1.10
2023-03-31T04:31:30.681Z,1.00
2023-03-31T04:34:02.642Z,0.90
2023-03-31T04:36:31.283Z,1.17
2023-03-31T04:38:58.321Z,0.88
2023-03-31T04:41:27.588Z,1.65
2023-03-31T04:43:54.444Z,0.90
2023-03-31T04:46:21.772Z,1.23
2023-03-31T04:48:48.448Z,1.42
2023-03-31T04:51:16.276Z,0.90
2023-03-31T04:53:42.877Z,1.00
2023-03-31T04:56:09.676Z,0.85
2023-03-31T04:58:36.623Z,1.10
2023-03-31T05:01:03.535Z,0.93
2023-03-31T05:03:31.667Z,1.10
2023-03-31T05:05:58.296Z,1.50
2023-03-31T05:08:24.883Z,1.10
2023-03-31T05:10:51.412Z,1.15
2023-03-31T05:13:17.964Z,1.08
2023-03-31T05:15:45.349Z,0.90
2023-03-31T05:18:12.072Z,1.10
2023-03-31T05:20:39.084Z,1.45
2023-03-31T05:23:06.865Z,1.05
2023-03-31T05:25:33.903Z,0.80
2023-03-31T05:28:01.418Z,0.93
2023-03-31T05:30:29.701Z,0.70
2023-03-31T05:32:56.903Z,1.00
2023-03-31T05:35:23.601Z,1.65
2023-03-31T05:37:50.323Z,1.30
2023-03-31T05:40:17.013Z,1.20
2023-03-31T05:42:43.593Z,0.90
2023-03-31T05:45:10.487Z,1.65
2023-03-31T05:47:37.294Z,1.00
2023-03-31T05:50:07.829Z,0.75
2023-03-31T05:52:35.436Z,1.17
2023-03-31T05:55:02.196Z,0.80
2023-03-31T05:57:28.800Z,1.35
2023-03-31T05:59:55.515Z,1.15
2023-03-31T06:02:22.195Z,1.05
2023-03-31T06:04:48.776Z,0.82
2023-03-31T06:07:17.711Z,1.00
2023-03-31T06:09:45.608Z,1.00
2023-03-31T06:12:12.155Z,1.10
2023-03-31T06:14:38.707Z,1.13
2023-03-31T06:17:05.440Z,1.02
2023-03-31T06:19:32.040Z,1.25
2023-03-31T06:21:58.854Z,1.15
2023-03-31T06:24:25.552Z,1.23
2023-03-31T06:26:53.717Z,0.80
2023-03-31T06:29:20.702Z,1.15
2023-03-31T06:31:47.447Z,1.50
2023-03-31T06:34:14.090Z,1.05
2023-03-31T06:36:41.400Z,1.25
2023-03-31T06:39:07.958Z,1.20
2023-03-31T06:41:34.634Z,1.10
2023-03-31T06:44:01.172Z,0.70
2023-03-31T06:46:27.784Z,1.02
2023-03-31T06:48:54.612Z,0.70
2023-03-31T06:51:21.387Z,0.77
2023-03-31T06:53:47.892Z,0.80
2023-03-31T06:56:14.559Z,1.20
2023-03-31T06:58:41.095Z,0.90
2023-03-31T07:01:08.242Z,0.60
2023-03-31T07:03:35.674Z,1.00
2023-03-31T07:06:02.428Z,1.25
2023-03-31T07:08:28.976Z,0.80
2023-03-31T07:10:58.481Z,1.10
2023-03-31T07:13:26.207Z,0.82
2023-03-31T07:15:53.614Z,1.00
2023-03-31T07:18:21.083Z,1.00
2023-03-31T07:20:49.966Z,0.88
2023-03-31T07:23:16.843Z,1.08
2023-03-31T07:25:43.901Z,0.98
2023-03-31T07:28:10.529Z,1.00
2023-03-31T07:30:37.176Z,0.70
2023-03-31T07:33:03.884Z,1.00
2023-03-31T07:35:31.393Z,1.20
2023-03-31T07:37:58.398Z,0.77
2023-03-31T07:40:27.830Z,0.60
2023-03-31T07:42:55.313Z,0.77
2023-03-31T07:45:24.620Z,1.20
2023-03-31T07:47:51.464Z,1.25
2023-03-31T07:50:18.965Z,0.70
2023-03-31T07:52:47.437Z,1.08
2023-03-31T07:55:14.707Z,1.40
2023-03-31T07:57:42.152Z,0.70
2023-03-31T08:00:12.283Z,0.70
2023-03-31T08:02:41.514Z,0.70
2023-03-31T08:05:09.487Z,1.13
2023-03-31T08:07:38.103Z,0.73
2023-03-31T08:10:07.629Z,0.90
2023-03-31T08:12:34.340Z,1.10
2023-03-31T08:15:01.194Z,1.20
2023-03-31T08:17:28.274Z,0.82
2023-03-31T08:19:54.946Z,1.00
2023-03-31T08:22:23.201Z,1.17
2023-03-31T08:24:49.838Z,0.90
2023-03-31T08:27:16.947Z,0.60
2023-03-31T08:29:43.530Z,0.98
2023-03-31T08:32:10.272Z,0.85
2023-03-31T08:34:38.184Z,1.10
2023-03-31T08:37:06.043Z,1.00
2023-03-31T08:39:34.096Z,1.10
2023-03-31T08:42:06.041Z,1.00
2023-03-31T08:44:50.626Z,0.93
2023-03-31T08:47:22.874Z,0.95
2023-03-31T08:49:53.536Z,0.60
2023-03-31T08:52:27.062Z,0.73
2023-03-31T08:54:58.535Z,0.70
2023-03-31T08:57:45.448Z,0.85
2023-03-31T09:00:19.348Z,0.60
2023-03-31T09:02:48.778Z,0.70
2023-03-31T09:05:18.442Z,0.95
2023-03-31T09:08:04.861Z,0.88
2023-03-31T09:10:56.407Z,0.88
2023-03-31T09:13:54.065Z,0.93
2023-03-31T09:16:45.769Z,1.05
2023-03-31T09:19:20.573Z,0.85
2023-03-31T09:21:51.649Z,1.13
2023-03-31T09:24:23.710Z,0.55
2023-03-31T09:26:55.844Z,0.80
2023-03-31T09:29:30.028Z,0.80
2023-03-31T09:32:03.086Z,1.10
2023-03-31T09:34:33.690Z,0.80
2023-03-31T09:37:00.191Z,0.73
2023-03-31T09:39:27.191Z,0.82
2023-03-31T09:41:56.598Z,0.90
2023-03-31T09:44:36.485Z,0.70
2023-03-31T09:47:03.931Z,0.65
2023-03-31T09:49:35.358Z,0.60
2023-03-31T09:54:44.505Z,0.68
2023-03-31T09:57:46.664Z,0.77
2023-03-31T10:00:16.601Z,0.93
2023-03-31T10:02:50.541Z,0.63
2023-03-31T10:05:36.523Z,0.45
2023-03-31T10:08:40.208Z,0.90
2023-03-31T10:11:11.285Z,0.93
2023-03-31T10:13:43.310Z,0.70
2023-03-31T10:16:14.268Z,0.50
2023-03-31T10:18:43.671Z,0.77
2023-03-31T10:21:22.335Z,0.88
2023-03-31T10:23:50.393Z,0.80
2023-03-31T10:26:20.463Z,0.65
2023-03-31T10:28:49.876Z,1.08
2023-03-31T10:31:16.574Z,0.73
2023-03-31T10:33:46.160Z,0.40
2023-03-31T10:36:23.682Z,0.70
2023-03-31T10:38:52.311Z,1.00
2023-03-31T10:41:28.296Z,0.75
2023-03-31T10:43:57.536Z,1.40
2023-03-31T10:46:52.342Z,0.90
2023-03-31T10:49:21.888Z,0.63
2023-03-31T10:51:52.121Z,0.98
2023-03-31T10:54:18.841Z,0.80
2023-03-31T10:56:49.693Z,0.85
2023-03-31T10:59:23.189Z,0.95
2023-03-31T11:02:00.296Z,0.57
2023-03-31T11:04:40.355Z,1.23
2023-03-31T11:07:21.279Z,1.02
2023-03-31T11:09:57.742Z,0.85
2023-03-31T11:12:40.392Z,0.82
2023-03-31T11:15:20.699Z,0.70
2023-03-31T11:17:53.626Z,0.93
2023-03-31T11:20:45.589Z,1.05
2023-03-31T11:23:36.740Z,0.70
2023-03-31T11:26:11.430Z,0.52
2023-03-31T11:28:42.831Z,0.50
2023-03-31T11:31:33.324Z,0.30
2023-03-31T11:34:18.070Z,0.20
2023-03-31T11:37:11.699Z,0.30
2023-03-31T11:39:53.646Z,0.30
2023-03-31T11:42:25.976Z,0.30
2023-03-31T11:45:00.367Z,0.38
2023-03-31T11:47:31.158Z,0.20
2023-03-31T11:50:03.063Z,0.20
2023-03-31T11:52:39.617Z,0.40
2023-03-31T11:55:15.355Z,0.40
2023-03-31T11:57:44.397Z,0.32
2023-03-31T12:00:21.177Z,0.32
2023-03-31T12:03:09.389Z,0.60
2023-03-31T12:05:41.774Z,0.63
2023-03-31T12:08:15.715Z,0.30
2023-03-31T12:13:41.305Z,0.30
2023-03-31T12:16:39.169Z,0.20
2023-03-31T12:19:05.906Z,0.40
2023-03-31T12:21:35.078Z,0.30
2023-03-31T12:24:01.742Z,0.40
2023-03-31T12:26:40.172Z,0.30
2023-03-31T12:29:24.599Z,0.30
2023-03-31T12:31:56.220Z,0.20
2023-03-31T12:34:26.365Z,0.50
2023-03-31T12:37:18.670Z,0.50
2023-03-31T12:40:06.284Z,0.30
2023-03-31T12:42:46.104Z,0.60
2023-03-31T12:45:27.563Z,0.20
2023-03-31T12:48:11.137Z,0.45
2023-03-31T12:51:02.493Z,0.32
2023-03-31T12:53:41.169Z,0.52
2023-03-31T12:56:08.552Z,0.85
2023-03-31T12:58:40.668Z,0.35
2023-03-31T13:01:24.389Z,0.40
2023-03-31T13:03:54.970Z,0.30
2023-03-31T13:06:28.526Z,0.30
2023-03-31T13:09:15.696Z,0.40
2023-03-31T13:11:48.002Z,0.38
2023-03-31T13:14:22.319Z,0.40
2023-03-31T13:16:52.217Z,0.30
2023-03-31T13:19:33.260Z,0.20
2023-03-31T13:22:02.776Z,0.10
2023-03-31T13:24:32.123Z,0.20
2023-03-31T13:27:19.386Z,0.15
2023-03-31T13:29:46.525Z,0.10
2023-03-31T13:32:19.231Z,0.20
2023-03-31T13:35:07.642Z,0.10
2023-03-31T13:38:03.160Z,0.20
2023-03-31T13:40:52.882Z,0.10
2023-03-31T13:44:04.488Z,0.17
2023-03-31T13:46:52.882Z,0.22
2023-03-31T13:49:44.248Z,0.30
2023-03-31T13:52:12.511Z,0.30
2023-03-31T13:55:04.441Z,0.35
2023-03-31T13:58:24.628Z,0.20
2023-03-31T14:01:10.322Z,0.20
2023-03-31T14:04:08.119Z,0.10
2023-03-31T14:06:41.617Z,0.20
2023-03-31T14:09:12.430Z,0.30
2023-03-31T14:11:39.187Z,0.20
2023-03-31T14:14:12.735Z,0.40
2023-03-31T14:16:45.768Z,0.75
2023-03-31T14:19:33.716Z,0.45
2023-03-31T14:22:24.531Z,0.30
2023-03-31T14:25:02.797Z,0.20
2023-03-31T14:28:14.590Z,0.30
2023-03-31T14:30:52.901Z,0.20
2023-03-31T14:33:46.411Z,0.40
2023-03-31T14:36:47.879Z,0.30
2023-03-31T14:39:18.891Z,0.20
2023-03-31T14:41:45.417Z,0.28
2023-03-31T14:44:19.146Z,0.13
2023-03-31T14:46:46.676Z,0.10
2023-03-31T14:49:28.048Z,0.20
2023-03-31T14:51:59.945Z,0.20
2023-03-31T14:54:26.533Z,0.30
2023-03-31T14:56:56.552Z,0.20
2023-03-31T14:59:29.997Z,0.22
2023-03-31T18:26:19.346Z,0.30
2023-03-31T18:28:46.371Z,0.20
2023-03-31T18:31:13.128Z,0.30
2023-03-31T18:33:40.681Z,0.22
2023-03-31T18:36:08.037Z,0.50
2023-03-31T18:38:36.739Z,0.20
2023-03-31T18:41:03.566Z,0.20
2023-03-31T18:43:32.006Z,0.10
2023-03-31T18:46:01.242Z,0.43
2023-03-31T18:48:28.179Z,0.10
2023-03-31T18:50:54.727Z,0.20
2023-03-31T18:53:22.524Z,0.32
2023-03-31T18:55:50.336Z,0.50
2023-03-31T18:58:17.367Z,0.20
2023-03-31T19:00:44.212Z,0.20
2023-03-31T19:03:11.000Z,0.10
2023-03-31T19:05:38.729Z,0.20
2023-03-31T19:08:05.647Z,0.20
2023-03-31T19:10:32.484Z,0.13
2023-03-31T19:12:59.203Z,0.40
2023-03-31T19:15:26.751Z,0.20
2023-03-31T19:17:53.428Z,0.22
2023-03-31T19:20:20.576Z,0.30
2023-03-31T19:22:50.098Z,0.20
2023-03-31T19:25:18.934Z,0.17
2023-03-31T19:27:46.750Z,0.10
2023-03-31T19:30:23.455Z,0.20
2023-03-31T19:32:50.180Z,0.35
2023-03-31T19:35:18.613Z,0.25
2023-03-31T19:37:46.570Z,0.20
2023-03-31T19:40:13.453Z,0.25
2023-03-31T19:42:41.961Z,0.20
2023-03-31T19:45:09.021Z,0.13
2023-03-31T19:47:35.703Z,0.10
2023-03-31T19:50:02.394Z,0.20
2023-03-31T19:52:29.371Z,0.20
2023-03-31T19:54:56.000Z,0.10
2023-03-31T19:57:22.654Z,0.17
2023-03-31T19:59:49.282Z,0.38
2023-03-31T20:02:15.947Z,0.22
2023-03-31T20:04:42.731Z,0.20
2023-03-31T20:07:09.343Z,0.50
2023-03-31T20:09:36.278Z,0.20
2023-03-31T20:12:02.950Z,0.20
2023-03-31T20:14:30.203Z,0.40
2023-03-31T20:17:00.724Z,0.20
2023-03-31T20:19:27.648Z,0.30
2023-03-31T20:21:55.827Z,0.10
2023-03-31T20:24:22.332Z,0.20
2023-03-31T20:26:49.944Z,0.20
2023-03-31T20:29:16.654Z,0.10
2023-03-31T20:31:43.264Z,0.20
2023-03-31T20:34:15.059Z,0.30
2023-03-31T20:36:43.761Z,0.68
2023-03-31T20:39:12.832Z,0.30
2023-03-31T20:41:40.101Z,0.20
2023-03-31T20:44:12.642Z,0.10
2023-03-31T20:46:42.005Z,0.20
2023-03-31T20:49:09.077Z,0.20
2023-03-31T20:51:37.621Z,0.10
2023-03-31T20:54:05.375Z,0.20
2023-03-31T20:56:36.846Z,0.20
2023-03-31T20:59:04.464Z,0.75
2023-03-31T21:01:33.450Z,0.47
2023-03-31T21:04:02.222Z,0.10
2023-03-31T21:06:32.622Z,0.52
2023-03-31T21:08:59.330Z,0.38
2023-03-31T21:11:26.545Z,0.30
2023-03-31T21:13:53.204Z,0.30
2023-03-31T21:16:20.536Z,0.57
2023-03-31T21:18:47.808Z,0.20
2023-03-31T21:21:18.732Z,0.20
2023-03-31T21:23:46.612Z,0.20
2023-03-31T21:26:15.528Z,0.30
2023-03-31T21:28:42.811Z,0.38
2023-03-31T21:31:15.217Z,0.20
2023-03-31T21:33:43.294Z,0.43
2023-03-31T21:36:16.299Z,0.30
2023-03-31T21:38:43.170Z,0.20
2023-03-31T21:41:15.660Z,0.15
2023-03-31T21:43:42.484Z,0.20
2023-03-31T21:46:09.569Z,0.50
2023-03-31T21:48:36.133Z,0.10
2023-03-31T21:51:03.146Z,0.22
2023-03-31T21:53:31.425Z,0.45
2023-03-31T21:55:58.745Z,0.20
2023-03-31T21:58:28.630Z,0.13
2023-03-31T22:00:57.400Z,0.20
2023-03-31T22:03:27.516Z,0.20
2023-03-31T22:05:58.589Z,0.28
2023-03-31T22:08:26.991Z,0.20
2023-03-31T22:10:54.581Z,0.17
2023-03-31T22:13:22.888Z,0.25
2023-03-31T22:15:49.801Z,0.20
2023-03-31T22:18:17.385Z,0.20
2023-03-31T22:20:45.551Z,0.57
2023-03-31T22:23:12.122Z,0.40
2023-03-31T22:25:38.657Z,0.10
2023-03-31T22:28:07.231Z,0.30
2023-03-31T22:30:34.527Z,0.20
2023-03-31T22:33:01.357Z,0.10
2023-03-31T22:35:28.276Z,0.20
2023-03-31T22:37:54.859Z,0.20
2023-03-31T22:40:21.637Z,0.10
2023-03-31T22:42:48.209Z,0.20
2023-03-31T22:45:14.902Z,0.10
2023-03-31T22:47:44.310Z,0.13
2023-03-31T22:50:11.346Z,0.20
2023-03-31T22:52:38.250Z,0.10
2023-03-31T22:55:06.128Z,0.25
2023-03-31T22:57:32.965Z,0.10
2023-03-31T22:59:59.580Z,0.20
2023-03-31T23:02:26.285Z,0.30
2023-03-31T23:04:52.839Z,0.10
2023-03-31T23:07:21.740Z,0.20
2023-03-31T23:09:48.848Z,0.10
2023-03-31T23:12:15.474Z,0.15
2023-03-31T23:14:42.096Z,0.20
2023-03-31T23:17:08.633Z,0.20
2023-03-31T23:19:35.407Z,0.20
2023-03-31T23:22:02.549Z,0.28
2023-03-31T23:24:29.922Z,0.20
2023-03-31T23:26:56.497Z,0.30
2023-03-31T23:29:23.291Z,0.30
2023-03-31T23:31:49.948Z,0.10
2023-03-31T23:34:16.558Z,0.20
2023-03-31T23:36:43.419Z,0.20
2023-03-31T23:39:10.537Z,0.20
2023-03-31T23:41:37.072Z,0.20
2023-03-31T23:44:04.537Z,0.13
2023-03-31T23:46:31.922Z,0.13
2023-03-31T23:48:59.425Z,0.20
2023-03-31T23:51:26.125Z,0.13
2023-03-31T23:53:52.834Z,0.10
2023-03-31T23:56:19.785Z,0.30
2023-03-31T23:58:47.014Z,0.10
